sensor_id;sensor_type;location;lat;lon;timestamp;P1;durP1;ratioP1;P2;durP2;ratioP2
13327;SDS011;6733;51.044;3.746;2023-05-10T00:02:17;14.50;;;10.83;;
13327;SDS011;6733;51.044;3.746;2023-05-10T00:04:43;15.33;;;10.87;;
13327;SDS011;6733;51.044;3.746;2023-05-10T00:07:09;16.50;;;11.77;;
13327;SDS011;6733;51.044;3.746;2023-05-10T00:09:36;13.77;;;10.10;;
13327;SDS011;6733;51.044;3.746;2023-05-10T00:12:02;14.40;;;10.63;;
13327;SDS011;6733;51.044;3.746;2023-05-10T00:14:29;16.50;;;10.50;;
13327;SDS011;6733;51.044;3.746;2023-05-10T00:16:55;16.87;;;11.43;;
13327;SDS011;6733;51.044;3.746;2023-05-10T00:19:21;15.53;;;10.87;;
13327;SDS011;6733;51.044;3.746;2023-05-10T00:21:48;14.23;;;10.40;;
13327;SDS011;6733;51.044;3.746;2023-05-10T00:24:14;16.87;;;11.53;;
13327;SDS011;6733;51.044;3.746;2023-05-10T00:26:40;16.33;;;11.63;;
13327;SDS011;6733;51.044;3.746;2023-05-10T00:29:07;17.77;;;12.07;;
13327;SDS011;6733;51.044;3.746;2023-05-10T00:31:33;17.13;;;12.57;;
13327;SDS011;6733;51.044;3.746;2023-05-10T00:34:00;20.03;;;13.43;;
13327;SDS011;6733;51.044;3.746;2023-05-10T00:36:26;20.23;;;14.30;;
13327;SDS011;6733;51.044;3.746;2023-05-10T00:38:53;21.90;;;16.10;;
13327;SDS011;6733;51.044;3.746;2023-05-10T00:41:19;17.37;;;14.40;;
13327;SDS011;6733;51.044;3.746;2023-05-10T00:43:46;21.70;;;15.77;;
13327;SDS011;6733;51.044;3.746;2023-05-10T00:46:13;22.90;;;16.40;;
13327;SDS011;6733;51.044;3.746;2023-05-10T00:48:41;22.60;;;16.70;;
13327;SDS011;6733;51.044;3.746;2023-05-10T00:51:08;17.20;;;14.20;;
13327;SDS011;6733;51.044;3.746;2023-05-10T00:53:35;18.73;;;14.77;;
13327;SDS011;6733;51.044;3.746;2023-05-10T00:56:01;20.27;;;16.17;;
13327;SDS011;6733;51.044;3.746;2023-05-10T00:58:28;20.10;;;16.00;;
13327;SDS011;6733;51.044;3.746;2023-05-10T01:00:56;20.67;;;16.47;;
13327;SDS011;6733;51.044;3.746;2023-05-10T01:03:23;21.80;;;16.43;;
13327;SDS011;6733;51.044;3.746;2023-05-10T01:05:50;21.47;;;17.13;;
13327;SDS011;6733;51.044;3.746;2023-05-10T01:08:16;23.83;;;17.83;;
13327;SDS011;6733;51.044;3.746;2023-05-10T01:10:42;23.60;;;19.43;;
13327;SDS011;6733;51.044;3.746;2023-05-10T01:13:09;23.97;;;21.37;;
13327;SDS011;6733;51.044;3.746;2023-05-10T01:15:36;29.63;;;21.77;;
13327;SDS011;6733;51.044;3.746;2023-05-10T01:18:03;27.53;;;22.33;;
13327;SDS011;6733;51.044;3.746;2023-05-10T01:20:32;25.17;;;22.27;;
13327;SDS011;6733;51.044;3.746;2023-05-10T01:23:18;25.97;;;21.53;;
13327;SDS011;6733;51.044;3.746;2023-05-10T01:33:33;27.47;;;23.40;;
13327;SDS011;6733;51.044;3.746;2023-05-10T01:39:01;27.40;;;23.10;;
13327;SDS011;6733;51.044;3.746;2023-05-10T01:41:56;25.30;;;21.90;;
13327;SDS011;6733;51.044;3.746;2023-05-10T01:47:12;26.60;;;21.90;;
13327;SDS011;6733;51.044;3.746;2023-05-10T01:49:47;27.53;;;20.60;;
13327;SDS011;6733;51.044;3.746;2023-05-10T01:52:16;24.57;;;19.07;;
13327;SDS011;6733;51.044;3.746;2023-05-10T01:54:49;25.30;;;20.93;;
13327;SDS011;6733;51.044;3.746;2023-05-10T01:57:20;24.83;;;20.53;;
13327;SDS011;6733;51.044;3.746;2023-05-10T01:59:50;27.20;;;22.50;;
13327;SDS011;6733;51.044;3.746;2023-05-10T02:02:18;23.53;;;21.03;;
13327;SDS011;6733;51.044;3.746;2023-05-10T02:04:47;24.23;;;20.20;;
13327;SDS011;6733;51.044;3.746;2023-05-10T02:07:16;25.47;;;20.97;;
13327;SDS011;6733;51.044;3.746;2023-05-10T02:09:43;23.50;;;18.63;;
13327;SDS011;6733;51.044;3.746;2023-05-10T02:12:13;24.90;;;20.20;;
13327;SDS011;6733;51.044;3.746;2023-05-10T02:14:41;25.00;;;19.30;;
13327;SDS011;6733;51.044;3.746;2023-05-10T02:17:08;22.87;;;18.30;;
13327;SDS011;6733;51.044;3.746;2023-05-10T02:19:36;22.73;;;18.70;;
13327;SDS011;6733;51.044;3.746;2023-05-10T02:22:06;23.37;;;17.67;;
13327;SDS011;6733;51.044;3.746;2023-05-10T02:24:33;23.10;;;18.67;;
13327;SDS011;6733;51.044;3.746;2023-05-10T02:27:02;25.47;;;18.07;;
13327;SDS011;6733;51.044;3.746;2023-05-10T02:29:29;22.60;;;17.90;;
13327;SDS011;6733;51.044;3.746;2023-05-10T02:31:56;21.30;;;16.83;;
13327;SDS011;6733;51.044;3.746;2023-05-10T02:34:49;23.50;;;17.13;;
13327;SDS011;6733;51.044;3.746;2023-05-10T02:38:05;22.77;;;18.50;;
13327;SDS011;6733;51.044;3.746;2023-05-10T02:41:22;21.93;;;17.57;;
13327;SDS011;6733;51.044;3.746;2023-05-10T02:44:39;22.07;;;16.03;;
13327;SDS011;6733;51.044;3.746;2023-05-10T02:47:58;21.47;;;16.70;;
13327;SDS011;6733;51.044;3.746;2023-05-10T02:51:14;22.97;;;18.13;;
13327;SDS011;6733;51.044;3.746;2023-05-10T02:54:34;21.30;;;16.57;;
13327;SDS011;6733;51.044;3.746;2023-05-10T02:57:06;19.07;;;16.43;;
13327;SDS011;6733;51.044;3.746;2023-05-10T02:59:34;19.87;;;16.20;;
13327;SDS011;6733;51.044;3.746;2023-05-10T03:02:00;20.60;;;16.43;;
13327;SDS011;6733;51.044;3.746;2023-05-10T03:04:27;20.63;;;17.70;;
13327;SDS011;6733;51.044;3.746;2023-05-10T03:06:53;18.00;;;15.50;;
13327;SDS011;6733;51.044;3.746;2023-05-10T03:09:20;17.10;;;13.93;;
13327;SDS011;6733;51.044;3.746;2023-05-10T03:11:49;18.03;;;14.13;;
13327;SDS011;6733;51.044;3.746;2023-05-10T03:14:53;19.50;;;14.30;;
13327;SDS011;6733;51.044;3.746;2023-05-10T03:17:41;17.17;;;14.37;;
13327;SDS011;6733;51.044;3.746;2023-05-10T03:20:29;15.87;;;13.60;;
13327;SDS011;6733;51.044;3.746;2023-05-10T03:23:07;16.80;;;14.27;;
13327;SDS011;6733;51.044;3.746;2023-05-10T03:25:43;19.30;;;15.90;;
13327;SDS011;6733;51.044;3.746;2023-05-10T03:28:12;19.47;;;15.20;;
13327;SDS011;6733;51.044;3.746;2023-05-10T03:30:41;16.80;;;13.60;;
13327;SDS011;6733;51.044;3.746;2023-05-10T03:33:08;17.03;;;14.83;;
13327;SDS011;6733;51.044;3.746;2023-05-10T03:35:35;17.67;;;15.10;;
13327;SDS011;6733;51.044;3.746;2023-05-10T03:38:01;19.40;;;14.67;;
13327;SDS011;6733;51.044;3.746;2023-05-10T03:40:27;17.43;;;15.17;;
13327;SDS011;6733;51.044;3.746;2023-05-10T03:42:57;17.27;;;14.63;;
13327;SDS011;6733;51.044;3.746;2023-05-10T03:45:26;18.97;;;15.17;;
13327;SDS011;6733;51.044;3.746;2023-05-10T03:47:53;16.47;;;14.30;;
13327;SDS011;6733;51.044;3.746;2023-05-10T03:50:19;19.23;;;15.43;;
13327;SDS011;6733;51.044;3.746;2023-05-10T03:52:46;17.23;;;14.27;;
13327;SDS011;6733;51.044;3.746;2023-05-10T03:55:12;18.60;;;14.77;;
13327;SDS011;6733;51.044;3.746;2023-05-10T03:57:38;18.77;;;15.07;;
13327;SDS011;6733;51.044;3.746;2023-05-10T04:00:05;20.63;;;16.17;;
13327;SDS011;6733;51.044;3.746;2023-05-10T04:02:31;23.23;;;16.30;;
13327;SDS011;6733;51.044;3.746;2023-05-10T04:04:57;19.23;;;15.57;;
13327;SDS011;6733;51.044;3.746;2023-05-10T04:07:23;20.23;;;16.70;;
13327;SDS011;6733;51.044;3.746;2023-05-10T04:09:50;22.90;;;16.80;;
13327;SDS011;6733;51.044;3.746;2023-05-10T04:12:16;20.70;;;16.57;;
13327;SDS011;6733;51.044;3.746;2023-05-10T04:14:42;19.87;;;17.23;;
13327;SDS011;6733;51.044;3.746;2023-05-10T04:17:08;23.03;;;18.10;;
13327;SDS011;6733;51.044;3.746;2023-05-10T04:19:35;21.97;;;17.93;;
13327;SDS011;6733;51.044;3.746;2023-05-10T04:22:02;23.30;;;19.00;;
13327;SDS011;6733;51.044;3.746;2023-05-10T04:24:29;27.37;;;20.00;;
13327;SDS011;6733;51.044;3.746;2023-05-10T04:26:55;23.93;;;19.40;;
13327;SDS011;6733;51.044;3.746;2023-05-10T04:29:21;26.00;;;20.37;;
13327;SDS011;6733;51.044;3.746;2023-05-10T04:31:47;24.60;;;21.07;;
13327;SDS011;6733;51.044;3.746;2023-05-10T04:34:14;27.07;;;22.40;;
13327;SDS011;6733;51.044;3.746;2023-05-10T04:36:40;28.93;;;21.40;;
13327;SDS011;6733;51.044;3.746;2023-05-10T04:39:06;30.27;;;22.40;;
13327;SDS011;6733;51.044;3.746;2023-05-10T04:41:32;27.10;;;22.10;;
13327;SDS011;6733;51.044;3.746;2023-05-10T04:43:59;27.00;;;22.23;;
13327;SDS011;6733;51.044;3.746;2023-05-10T04:46:25;27.53;;;21.80;;
13327;SDS011;6733;51.044;3.746;2023-05-10T04:48:51;28.07;;;22.27;;
13327;SDS011;6733;51.044;3.746;2023-05-10T04:51:17;27.83;;;22.60;;
13327;SDS011;6733;51.044;3.746;2023-05-10T04:53:43;26.73;;;21.80;;
13327;SDS011;6733;51.044;3.746;2023-05-10T04:56:10;27.70;;;22.03;;
13327;SDS011;6733;51.044;3.746;2023-05-10T04:58:36;26.30;;;20.70;;
13327;SDS011;6733;51.044;3.746;2023-05-10T05:01:06;25.77;;;21.73;;
13327;SDS011;6733;51.044;3.746;2023-05-10T05:03:33;25.73;;;21.83;;
13327;SDS011;6733;51.044;3.746;2023-05-10T05:05:59;28.27;;;21.23;;
13327;SDS011;6733;51.044;3.746;2023-05-10T05:08:26;26.93;;;22.30;;
13327;SDS011;6733;51.044;3.746;2023-05-10T05:10:52;29.50;;;23.10;;
13327;SDS011;6733;51.044;3.746;2023-05-10T05:13:18;28.43;;;23.67;;
13327;SDS011;6733;51.044;3.746;2023-05-10T05:15:44;28.10;;;22.53;;
13327;SDS011;6733;51.044;3.746;2023-05-10T05:18:11;31.07;;;23.60;;
13327;SDS011;6733;51.044;3.746;2023-05-10T05:20:37;30.23;;;23.83;;
13327;SDS011;6733;51.044;3.746;2023-05-10T05:23:03;28.43;;;24.03;;
13327;SDS011;6733;51.044;3.746;2023-05-10T05:25:29;32.70;;;24.63;;
13327;SDS011;6733;51.044;3.746;2023-05-10T05:27:55;30.20;;;24.23;;
13327;SDS011;6733;51.044;3.746;2023-05-10T05:30:21;30.57;;;23.23;;
13327;SDS011;6733;51.044;3.746;2023-05-10T05:32:47;30.20;;;24.17;;
13327;SDS011;6733;51.044;3.746;2023-05-10T05:35:14;30.90;;;23.83;;
13327;SDS011;6733;51.044;3.746;2023-05-10T05:37:40;28.77;;;23.30;;
13327;SDS011;6733;51.044;3.746;2023-05-10T05:40:07;27.47;;;21.43;;
13327;SDS011;6733;51.044;3.746;2023-05-10T05:42:33;30.87;;;21.60;;
13327;SDS011;6733;51.044;3.746;2023-05-10T05:45:00;27.80;;;22.10;;
13327;SDS011;6733;51.044;3.746;2023-05-10T05:47:26;25.67;;;21.03;;
13327;SDS011;6733;51.044;3.746;2023-05-10T05:49:52;29.07;;;22.07;;
13327;SDS011;6733;51.044;3.746;2023-05-10T05:52:18;28.03;;;22.13;;
13327;SDS011;6733;51.044;3.746;2023-05-10T05:54:44;28.50;;;22.17;;
13327;SDS011;6733;51.044;3.746;2023-05-10T05:57:10;29.37;;;22.43;;
13327;SDS011;6733;51.044;3.746;2023-05-10T05:59:36;27.43;;;22.30;;
13327;SDS011;6733;51.044;3.746;2023-05-10T06:02:09;25.17;;;21.70;;
13327;SDS011;6733;51.044;3.746;2023-05-10T06:04:36;27.40;;;23.10;;
13327;SDS011;6733;51.044;3.746;2023-05-10T06:07:02;30.43;;;23.37;;
13327;SDS011;6733;51.044;3.746;2023-05-10T06:09:28;40.67;;;24.03;;
13327;SDS011;6733;51.044;3.746;2023-05-10T06:11:54;34.73;;;25.23;;
13327;SDS011;6733;51.044;3.746;2023-05-10T06:14:21;32.33;;;23.80;;
13327;SDS011;6733;51.044;3.746;2023-05-10T06:16:47;31.10;;;24.23;;
13327;SDS011;6733;51.044;3.746;2023-05-10T06:19:13;32.67;;;24.53;;
13327;SDS011;6733;51.044;3.746;2023-05-10T06:21:39;35.60;;;24.63;;
13327;SDS011;6733;51.044;3.746;2023-05-10T06:24:06;29.27;;;23.70;;
13327;SDS011;6733;51.044;3.746;2023-05-10T06:26:32;28.17;;;22.77;;
13327;SDS011;6733;51.044;3.746;2023-05-10T06:28:59;29.90;;;25.07;;
13327;SDS011;6733;51.044;3.746;2023-05-10T06:31:25;33.57;;;24.53;;
13327;SDS011;6733;51.044;3.746;2023-05-10T06:33:51;33.57;;;24.63;;
13327;SDS011;6733;51.044;3.746;2023-05-10T06:36:17;36.57;;;24.87;;
13327;SDS011;6733;51.044;3.746;2023-05-10T06:38:43;33.07;;;24.90;;
13327;SDS011;6733;51.044;3.746;2023-05-10T06:41:10;30.03;;;24.73;;
13327;SDS011;6733;51.044;3.746;2023-05-10T06:43:36;32.00;;;25.20;;
13327;SDS011;6733;51.044;3.746;2023-05-10T06:46:05;38.20;;;25.37;;
13327;SDS011;6733;51.044;3.746;2023-05-10T06:48:32;35.37;;;26.47;;
13327;SDS011;6733;51.044;3.746;2023-05-10T06:50:58;37.07;;;27.83;;
13327;SDS011;6733;51.044;3.746;2023-05-10T06:53:24;34.70;;;26.80;;
13327;SDS011;6733;51.044;3.746;2023-05-10T06:55:50;39.43;;;27.37;;
13327;SDS011;6733;51.044;3.746;2023-05-10T06:58:17;41.57;;;27.73;;
13327;SDS011;6733;51.044;3.746;2023-05-10T07:00:43;37.37;;;26.70;;
13327;SDS011;6733;51.044;3.746;2023-05-10T07:03:10;39.87;;;27.00;;
13327;SDS011;6733;51.044;3.746;2023-05-10T07:05:36;38.57;;;28.30;;
13327;SDS011;6733;51.044;3.746;2023-05-10T07:08:03;38.57;;;28.50;;
13327;SDS011;6733;51.044;3.746;2023-05-10T07:10:29;38.43;;;27.43;;
13327;SDS011;6733;51.044;3.746;2023-05-10T07:12:55;40.87;;;28.40;;
13327;SDS011;6733;51.044;3.746;2023-05-10T07:15:21;38.20;;;27.70;;
13327;SDS011;6733;51.044;3.746;2023-05-10T07:17:48;47.60;;;29.40;;
13327;SDS011;6733;51.044;3.746;2023-05-10T07:20:14;36.03;;;25.70;;
13327;SDS011;6733;51.044;3.746;2023-05-10T07:22:40;40.27;;;26.93;;
13327;SDS011;6733;51.044;3.746;2023-05-10T07:25:06;34.57;;;25.43;;
13327;SDS011;6733;51.044;3.746;2023-05-10T07:27:33;36.23;;;26.10;;
13327;SDS011;6733;51.044;3.746;2023-05-10T07:29:59;42.33;;;26.77;;
13327;SDS011;6733;51.044;3.746;2023-05-10T07:32:26;32.47;;;24.80;;
13327;SDS011;6733;51.044;3.746;2023-05-10T07:34:52;41.10;;;27.10;;
13327;SDS011;6733;51.044;3.746;2023-05-10T07:37:18;37.00;;;26.17;;
13327;SDS011;6733;51.044;3.746;2023-05-10T07:39:44;39.87;;;27.03;;
13327;SDS011;6733;51.044;3.746;2023-05-10T07:42:10;38.57;;;26.57;;
13327;SDS011;6733;51.044;3.746;2023-05-10T07:44:36;37.83;;;25.17;;
13327;SDS011;6733;51.044;3.746;2023-05-10T07:47:03;37.27;;;25.70;;
13327;SDS011;6733;51.044;3.746;2023-05-10T07:49:29;37.53;;;25.17;;
13327;SDS011;6733;51.044;3.746;2023-05-10T07:51:55;33.77;;;24.90;;
13327;SDS011;6733;51.044;3.746;2023-05-10T07:54:21;37.50;;;25.57;;
13327;SDS011;6733;51.044;3.746;2023-05-10T07:56:47;31.37;;;23.37;;
13327;SDS011;6733;51.044;3.746;2023-05-10T07:59:17;33.57;;;24.10;;
13327;SDS011;6733;51.044;3.746;2023-05-10T08:01:43;35.63;;;24.07;;
13327;SDS011;6733;51.044;3.746;2023-05-10T08:04:10;29.67;;;23.63;;
13327;SDS011;6733;51.044;3.746;2023-05-10T08:06:36;32.90;;;23.80;;
13327;SDS011;6733;51.044;3.746;2023-05-10T08:09:03;32.57;;;24.40;;
13327;SDS011;6733;51.044;3.746;2023-05-10T08:11:29;32.60;;;23.93;;
13327;SDS011;6733;51.044;3.746;2023-05-10T08:13:55;37.80;;;25.47;;
13327;SDS011;6733;51.044;3.746;2023-05-10T08:16:21;31.73;;;23.67;;
13327;SDS011;6733;51.044;3.746;2023-05-10T08:18:47;33.30;;;25.03;;
13327;SDS011;6733;51.044;3.746;2023-05-10T08:21:16;33.73;;;24.17;;
13327;SDS011;6733;51.044;3.746;2023-05-10T08:23:42;35.80;;;25.37;;
13327;SDS011;6733;51.044;3.746;2023-05-10T08:26:09;37.40;;;24.63;;
13327;SDS011;6733;51.044;3.746;2023-05-10T08:28:35;33.13;;;25.13;;
13327;SDS011;6733;51.044;3.746;2023-05-10T08:31:02;35.43;;;23.77;;
13327;SDS011;6733;51.044;3.746;2023-05-10T08:33:28;32.47;;;22.87;;
13327;SDS011;6733;51.044;3.746;2023-05-10T08:35:54;37.17;;;23.20;;
13327;SDS011;6733;51.044;3.746;2023-05-10T08:38:20;36.00;;;22.63;;
13327;SDS011;6733;51.044;3.746;2023-05-10T08:40:46;37.53;;;22.43;;
13327;SDS011;6733;51.044;3.746;2023-05-10T08:43:16;32.33;;;20.90;;
13327;SDS011;6733;51.044;3.746;2023-05-10T08:45:43;33.13;;;20.57;;
13327;SDS011;6733;51.044;3.746;2023-05-10T08:48:13;33.17;;;21.10;;
13327;SDS011;6733;51.044;3.746;2023-05-10T08:50:40;36.37;;;21.33;;
13327;SDS011;6733;51.044;3.746;2023-05-10T08:53:12;28.90;;;20.77;;
13327;SDS011;6733;51.044;3.746;2023-05-10T08:55:39;32.63;;;20.97;;
13327;SDS011;6733;51.044;3.746;2023-05-10T08:58:07;32.53;;;19.23;;
13327;SDS011;6733;51.044;3.746;2023-05-10T09:00:35;26.03;;;18.03;;
13327;SDS011;6733;51.044;3.746;2023-05-10T09:03:02;27.03;;;17.93;;
13327;SDS011;6733;51.044;3.746;2023-05-10T09:05:30;29.30;;;19.33;;
13327;SDS011;6733;51.044;3.746;2023-05-10T09:07:57;26.83;;;19.53;;
13327;SDS011;6733;51.044;3.746;2023-05-10T09:10:26;29.37;;;19.40;;
13327;SDS011;6733;51.044;3.746;2023-05-10T09:12:53;27.60;;;19.33;;
13327;SDS011;6733;51.044;3.746;2023-05-10T09:15:22;27.80;;;18.33;;
13327;SDS011;6733;51.044;3.746;2023-05-10T09:17:49;26.67;;;18.63;;
13327;SDS011;6733;51.044;3.746;2023-05-10T09:20:15;33.37;;;19.90;;
13327;SDS011;6733;51.044;3.746;2023-05-10T09:22:43;28.17;;;19.27;;
13327;SDS011;6733;51.044;3.746;2023-05-10T09:25:10;26.73;;;18.80;;
13327;SDS011;6733;51.044;3.746;2023-05-10T09:27:41;26.07;;;17.40;;
13327;SDS011;6733;51.044;3.746;2023-05-10T09:30:23;29.77;;;19.03;;
13327;SDS011;6733;51.044;3.746;2023-05-10T09:32:53;27.10;;;18.80;;
13327;SDS011;6733;51.044;3.746;2023-05-10T09:35:23;25.80;;;18.40;;
13327;SDS011;6733;51.044;3.746;2023-05-10T09:37:52;23.07;;;17.43;;
13327;SDS011;6733;51.044;3.746;2023-05-10T09:40:24;26.93;;;17.80;;
13327;SDS011;6733;51.044;3.746;2023-05-10T09:42:52;27.60;;;17.90;;
13327;SDS011;6733;51.044;3.746;2023-05-10T09:45:22;24.30;;;18.00;;
13327;SDS011;6733;51.044;3.746;2023-05-10T09:47:49;25.27;;;16.47;;
13327;SDS011;6733;51.044;3.746;2023-05-10T09:50:15;22.87;;;16.23;;
13327;SDS011;6733;51.044;3.746;2023-05-10T09:55:47;21.60;;;15.90;;
13327;SDS011;6733;51.044;3.746;2023-05-10T09:58:14;20.63;;;14.97;;
13327;SDS011;6733;51.044;3.746;2023-05-10T10:00:42;17.47;;;13.40;;
13327;SDS011;6733;51.044;3.746;2023-05-10T10:03:16;21.43;;;15.53;;
13327;SDS011;6733;51.044;3.746;2023-05-10T10:05:44;18.23;;;15.03;;
13327;SDS011;6733;51.044;3.746;2023-05-10T10:08:12;22.33;;;15.03;;
13327;SDS011;6733;51.044;3.746;2023-05-10T10:10:39;18.20;;;13.17;;
13327;SDS011;6733;51.044;3.746;2023-05-10T10:13:06;20.40;;;14.57;;
13327;SDS011;6733;51.044;3.746;2023-05-10T10:15:33;20.07;;;14.87;;
13327;SDS011;6733;51.044;3.746;2023-05-10T10:18:00;17.97;;;13.60;;
13327;SDS011;6733;51.044;3.746;2023-05-10T10:20:26;19.50;;;14.03;;
13327;SDS011;6733;51.044;3.746;2023-05-10T10:22:53;20.47;;;13.33;;
13327;SDS011;6733;51.044;3.746;2023-05-10T10:25:20;22.40;;;13.67;;
13327;SDS011;6733;51.044;3.746;2023-05-10T10:36:01;16.83;;;11.53;;
13327;SDS011;6733;51.044;3.746;2023-05-10T10:38:54;16.90;;;12.93;;
13327;SDS011;6733;51.044;3.746;2023-05-10T10:46:59;15.43;;;12.17;;
13327;SDS011;6733;51.044;3.746;2023-05-10T10:49:26;17.30;;;13.00;;
13327;SDS011;6733;51.044;3.746;2023-05-10T10:54:44;16.73;;;13.70;;
13327;SDS011;6733;51.044;3.746;2023-05-10T10:57:17;18.70;;;13.63;;
13327;SDS011;6733;51.044;3.746;2023-05-10T10:59:45;18.30;;;13.90;;
13327;SDS011;6733;51.044;3.746;2023-05-10T11:07:53;17.27;;;13.90;;
13327;SDS011;6733;51.044;3.746;2023-05-10T11:10:21;16.00;;;13.50;;
13327;SDS011;6733;51.044;3.746;2023-05-10T11:13:04;17.47;;;13.93;;
13327;SDS011;6733;51.044;3.746;2023-05-10T11:15:35;20.23;;;14.33;;
13327;SDS011;6733;51.044;3.746;2023-05-10T11:18:18;17.13;;;14.20;;
13327;SDS011;6733;51.044;3.746;2023-05-10T11:20:55;18.07;;;14.77;;
13327;SDS011;6733;51.044;3.746;2023-05-10T11:23:32;21.27;;;15.50;;
13327;SDS011;6733;51.044;3.746;2023-05-10T11:26:13;18.80;;;16.17;;
13327;SDS011;6733;51.044;3.746;2023-05-10T11:31:10;21.27;;;18.70;;
13327;SDS011;6733;51.044;3.746;2023-05-10T11:33:46;24.00;;;18.47;;
13327;SDS011;6733;51.044;3.746;2023-05-10T11:36:20;21.93;;;19.57;;
13327;SDS011;6733;51.044;3.746;2023-05-10T11:38:50;24.73;;;19.37;;
13327;SDS011;6733;51.044;3.746;2023-05-10T11:41:18;22.27;;;19.83;;
13327;SDS011;6733;51.044;3.746;2023-05-10T11:43:48;25.93;;;20.67;;
13327;SDS011;6733;51.044;3.746;2023-05-10T11:46:16;26.70;;;20.07;;
13327;SDS011;6733;51.044;3.746;2023-05-10T11:48:46;21.60;;;18.87;;
13327;SDS011;6733;51.044;3.746;2023-05-10T11:51:19;22.00;;;19.73;;
13327;SDS011;6733;51.044;3.746;2023-05-10T11:53:46;25.40;;;19.17;;
13327;SDS011;6733;51.044;3.746;2023-05-10T11:56:12;22.80;;;20.33;;
13327;SDS011;6733;51.044;3.746;2023-05-10T11:58:38;22.40;;;20.00;;
13327;SDS011;6733;51.044;3.746;2023-05-10T12:01:07;23.13;;;20.73;;
13327;SDS011;6733;51.044;3.746;2023-05-10T12:03:34;22.70;;;20.30;;
13327;SDS011;6733;51.044;3.746;2023-05-10T12:06:01;21.37;;;19.07;;
13327;SDS011;6733;51.044;3.746;2023-05-10T12:08:29;21.07;;;18.77;;
13327;SDS011;6733;51.044;3.746;2023-05-10T12:11:06;20.23;;;17.63;;
13327;SDS011;6733;51.044;3.746;2023-05-10T12:13:39;19.73;;;17.33;;
13327;SDS011;6733;51.044;3.746;2023-05-10T12:16:13;23.83;;;18.33;;
13327;SDS011;6733;51.044;3.746;2023-05-10T12:18:41;22.90;;;18.00;;
13327;SDS011;6733;51.044;3.746;2023-05-10T12:21:11;22.77;;;17.87;;
13327;SDS011;6733;51.044;3.746;2023-05-10T12:23:38;19.07;;;17.03;;
13327;SDS011;6733;51.044;3.746;2023-05-10T12:26:05;21.07;;;17.30;;
13327;SDS011;6733;51.044;3.746;2023-05-10T12:28:32;20.10;;;16.63;;
13327;SDS011;6733;51.044;3.746;2023-05-10T12:30:59;21.83;;;17.40;;
13327;SDS011;6733;51.044;3.746;2023-05-10T12:33:25;18.33;;;15.90;;
13327;SDS011;6733;51.044;3.746;2023-05-10T12:35:52;20.97;;;16.93;;
13327;SDS011;6733;51.044;3.746;2023-05-10T12:38:36;18.80;;;16.73;;
13327;SDS011;6733;51.044;3.746;2023-05-10T12:41:08;17.67;;;15.87;;
13327;SDS011;6733;51.044;3.746;2023-05-10T12:43:36;19.53;;;17.53;;
13327;SDS011;6733;51.044;3.746;2023-05-10T12:46:09;19.60;;;17.03;;
13327;SDS011;6733;51.044;3.746;2023-05-10T12:48:36;18.93;;;16.20;;
13327;SDS011;6733;51.044;3.746;2023-05-10T12:51:03;21.87;;;17.20;;
13327;SDS011;6733;51.044;3.746;2023-05-10T12:53:30;21.87;;;16.87;;
13327;SDS011;6733;51.044;3.746;2023-05-10T12:55:57;20.70;;;17.70;;
13327;SDS011;6733;51.044;3.746;2023-05-10T12:58:23;21.10;;;16.70;;
13327;SDS011;6733;51.044;3.746;2023-05-10T13:00:49;27.87;;;20.03;;
13327;SDS011;6733;51.044;3.746;2023-05-10T13:03:17;25.47;;;19.30;;
13327;SDS011;6733;51.044;3.746;2023-05-10T13:05:43;24.17;;;18.23;;
13327;SDS011;6733;51.044;3.746;2023-05-10T13:08:09;21.53;;;18.87;;
13327;SDS011;6733;51.044;3.746;2023-05-10T13:10:35;22.67;;;17.93;;
13327;SDS011;6733;51.044;3.746;2023-05-10T13:13:01;22.70;;;17.77;;
13327;SDS011;6733;51.044;3.746;2023-05-10T13:15:27;26.17;;;18.70;;
13327;SDS011;6733;51.044;3.746;2023-05-10T13:17:54;23.57;;;18.83;;
13327;SDS011;6733;51.044;3.746;2023-05-10T13:20:20;20.40;;;17.03;;
13327;SDS011;6733;51.044;3.746;2023-05-10T13:22:46;23.07;;;18.03;;
13327;SDS011;6733;51.044;3.746;2023-05-10T13:25:13;20.20;;;15.30;;
13327;SDS011;6733;51.044;3.746;2023-05-10T13:27:39;20.60;;;14.63;;
13327;SDS011;6733;51.044;3.746;2023-05-10T13:30:09;16.53;;;14.83;;
13327;SDS011;6733;51.044;3.746;2023-05-10T13:32:36;19.20;;;15.63;;
13327;SDS011;6733;51.044;3.746;2023-05-10T13:35:03;19.30;;;16.43;;
13327;SDS011;6733;51.044;3.746;2023-05-10T13:37:30;20.23;;;15.77;;
13327;SDS011;6733;51.044;3.746;2023-05-10T13:39:57;20.57;;;16.30;;
13327;SDS011;6733;51.044;3.746;2023-05-10T13:42:23;23.47;;;17.60;;
13327;SDS011;6733;51.044;3.746;2023-05-10T13:44:49;25.00;;;18.27;;
13327;SDS011;6733;51.044;3.746;2023-05-10T13:47:16;26.23;;;18.93;;
13327;SDS011;6733;51.044;3.746;2023-05-10T13:49:42;23.07;;;18.37;;
13327;SDS011;6733;51.044;3.746;2023-05-10T13:52:08;24.00;;;18.57;;
13327;SDS011;6733;51.044;3.746;2023-05-10T13:54:35;27.13;;;19.40;;
13327;SDS011;6733;51.044;3.746;2023-05-10T13:57:02;25.60;;;18.50;;
13327;SDS011;6733;51.044;3.746;2023-05-10T13:59:28;24.93;;;18.67;;
13327;SDS011;6733;51.044;3.746;2023-05-10T14:01:57;28.43;;;19.37;;
13327;SDS011;6733;51.044;3.746;2023-05-10T14:04:24;27.97;;;20.03;;
13327;SDS011;6733;51.044;3.746;2023-05-10T14:06:50;27.27;;;19.17;;
13327;SDS011;6733;51.044;3.746;2023-05-10T14:09:18;27.93;;;19.83;;
13327;SDS011;6733;51.044;3.746;2023-05-10T14:11:45;28.30;;;19.80;;
13327;SDS011;6733;51.044;3.746;2023-05-10T14:14:11;29.87;;;20.07;;
13327;SDS011;6733;51.044;3.746;2023-05-10T14:16:42;28.03;;;19.77;;
13327;SDS011;6733;51.044;3.746;2023-05-10T14:19:09;29.27;;;19.80;;
13327;SDS011;6733;51.044;3.746;2023-05-10T14:21:36;30.57;;;20.27;;
13327;SDS011;6733;51.044;3.746;2023-05-10T14:24:03;27.57;;;19.83;;
13327;SDS011;6733;51.044;3.746;2023-05-10T14:26:30;25.27;;;19.57;;
13327;SDS011;6733;51.044;3.746;2023-05-10T14:28:56;25.63;;;19.03;;
13327;SDS011;6733;51.044;3.746;2023-05-10T14:31:23;24.00;;;19.70;;
13327;SDS011;6733;51.044;3.746;2023-05-10T14:33:50;29.00;;;20.63;;
13327;SDS011;6733;51.044;3.746;2023-05-10T14:36:17;26.43;;;18.70;;
13327;SDS011;6733;51.044;3.746;2023-05-10T14:38:43;27.80;;;20.17;;
13327;SDS011;6733;51.044;3.746;2023-05-10T14:41:09;25.33;;;19.70;;
13327;SDS011;6733;51.044;3.746;2023-05-10T14:43:39;30.13;;;20.10;;
13327;SDS011;6733;51.044;3.746;2023-05-10T14:46:06;27.03;;;18.63;;
13327;SDS011;6733;51.044;3.746;2023-05-10T14:48:32;18.10;;;14.37;;
13327;SDS011;6733;51.044;3.746;2023-05-10T14:50:59;21.27;;;15.60;;
13327;SDS011;6733;51.044;3.746;2023-05-10T14:53:25;22.67;;;15.23;;
13327;SDS011;6733;51.044;3.746;2023-05-10T14:55:51;23.60;;;16.17;;
13327;SDS011;6733;51.044;3.746;2023-05-10T14:58:17;19.73;;;14.87;;
13327;SDS011;6733;51.044;3.746;2023-05-10T15:00:44;20.63;;;15.83;;
13327;SDS011;6733;51.044;3.746;2023-05-10T15:03:11;23.97;;;14.70;;
13327;SDS011;6733;51.044;3.746;2023-05-10T15:05:37;20.90;;;14.63;;
13327;SDS011;6733;51.044;3.746;2023-05-10T15:08:04;19.43;;;13.47;;
13327;SDS011;6733;51.044;3.746;2023-05-10T15:10:31;19.67;;;12.33;;
13327;SDS011;6733;51.044;3.746;2023-05-10T15:12:58;18.73;;;13.03;;
13327;SDS011;6733;51.044;3.746;2023-05-10T15:15:24;18.67;;;11.57;;
13327;SDS011;6733;51.044;3.746;2023-05-10T15:17:51;15.73;;;11.57;;
13327;SDS011;6733;51.044;3.746;2023-05-10T15:20:17;18.60;;;13.20;;
13327;SDS011;6733;51.044;3.746;2023-05-10T15:22:43;20.17;;;11.63;;
13327;SDS011;6733;51.044;3.746;2023-05-10T15:25:09;15.37;;;10.60;;